createdAt,value
2022-08-29T00:03:08.461Z,51.47
2022-08-29T00:08:11.834Z,45.60
2022-08-29T00:13:15.459Z,50.08
2022-08-29T00:18:20.620Z,47.80
2022-08-29T00:23:23.296Z,49.05
2022-08-29T00:28:25.919Z,52.25
2022-08-29T00:33:28.828Z,55.30
2022-08-29T00:38:31.629Z,59.22
2022-08-29T00:43:37.051Z,56.28
2022-08-29T00:48:41.325Z,57.63
2022-08-29T00:53:46.959Z,52.90
2022-08-29T00:59:01.261Z,51.63
2022-08-29T01:04:05.217Z,56.38
2022-08-29T01:09:12.753Z,54.50
2022-08-29T01:14:17.911Z,52.50
2022-08-29T01:19:27.928Z,53.30
2022-08-29T01:24:34.706Z,54.10
2022-08-29T01:29:37.366Z,53.47
2022-08-29T01:34:41.946Z,58.03
2022-08-29T01:39:45.849Z,56.53
2022-08-29T01:44:55.459Z,58.65
2022-08-29T01:49:58.909Z,55.25
2022-08-29T01:55:01.677Z,59.25
2022-08-29T02:00:08.521Z,57.65
2022-08-29T02:05:11.627Z,50.25
2022-08-29T02:10:14.304Z,51.65
2022-08-29T02:15:19.008Z,55.03
2022-08-29T02:20:21.683Z,57.88
2022-08-29T02:25:42.382Z,66.00
2022-08-29T02:30:49.916Z,65.97
2022-08-29T02:35:59.505Z,68.03
2022-08-29T02:41:03.104Z,62.65
2022-08-29T02:46:06.138Z,65.38
2022-08-29T02:51:08.953Z,75.22
2022-08-29T02:56:14.311Z,67.65
2022-08-29T03:01:20.661Z,62.42
2022-08-29T03:06:23.992Z,65.57
2022-08-29T03:11:28.635Z,57.47
2022-08-29T03:16:31.470Z,63.47
2022-08-29T03:21:34.164Z,50.70
2022-08-29T03:26:37.877Z,56.10
2022-08-29T03:31:40.575Z,54.60
2022-08-29T03:36:43.312Z,53.67
2022-08-29T03:41:46.163Z,46.85
2022-08-29T03:46:49.035Z,51.17
2022-08-29T03:51:52.058Z,47.00
2022-08-29T03:56:55.834Z,43.97
2022-08-29T04:01:58.785Z,44.88
2022-08-29T04:07:02.733Z,42.55
2022-08-29T04:12:05.578Z,37.03
2022-08-29T04:17:10.379Z,37.40
2022-08-29T04:22:13.863Z,41.40
2022-08-29T04:27:17.684Z,35.92
2022-08-29T04:32:20.719Z,32.97
2022-08-29T04:37:24.007Z,32.85
2022-08-29T04:42:26.712Z,37.22
2022-08-29T04:47:29.344Z,44.88
2022-08-29T04:52:32.578Z,38.88
2022-08-29T04:57:36.657Z,43.08
2022-08-29T05:02:40.519Z,39.13
2022-08-29T05:07:43.812Z,42.15
2022-08-29T05:12:46.882Z,47.80
2022-08-29T05:17:49.541Z,41.92
2022-08-29T05:22:52.457Z,36.15
2022-08-29T05:27:55.050Z,41.47
2022-08-29T05:32:58.810Z,46.55
2022-08-29T05:38:07.133Z,47.13
2022-08-29T05:43:12.301Z,41.40
2022-08-29T05:48:17.418Z,47.40
2022-08-29T05:53:20.327Z,45.08
2022-08-29T05:58:23.206Z,37.17
2022-08-29T06:03:25.955Z,39.67
2022-08-29T06:08:28.700Z,43.80
2022-08-29T06:13:31.462Z,43.08
2022-08-29T06:18:35.299Z,46.80
2022-08-29T06:23:40.676Z,50.55
2022-08-29T06:28:46.248Z,41.03
2022-08-29T06:33:53.800Z,41.83
2022-08-29T06:39:01.228Z,44.63
2022-08-29T06:44:04.710Z,43.88
2022-08-29T06:49:10.515Z,43.28
2022-08-29T06:54:13.845Z,45.65
2022-08-29T06:59:16.915Z,44.88
2022-08-29T07:04:20.654Z,39.85
2022-08-29T07:09:24.017Z,37.40
2022-08-29T07:14:26.693Z,42.90
2022-08-29T07:19:29.390Z,38.00
2022-08-29T07:24:32.633Z,38.83
2022-08-29T07:29:35.506Z,38.20
2022-08-29T07:34:38.173Z,36.47
2022-08-29T07:39:40.852Z,39.90
2022-08-29T07:44:43.559Z,44.10
2022-08-29T07:49:46.186Z,40.88
2022-08-29T07:54:48.964Z,39.42
2022-08-29T07:59:52.171Z,47.22
2022-08-29T08:04:54.812Z,45.47
2022-08-29T08:09:57.542Z,39.00
2022-08-29T08:15:00.958Z,42.88
2022-08-29T08:20:07.392Z,41.40
2022-08-29T08:25:10.134Z,39.08
2022-08-29T08:30:13.835Z,37.55
2022-08-29T08:35:16.748Z,30.77
2022-08-29T08:40:26.801Z,35.58
2022-08-29T08:45:42.962Z,26.37
2022-08-29T08:50:54.415Z,25.27
2022-08-29T08:56:00.140Z,26.48
2022-08-29T09:01:30.278Z,21.92
2022-08-29T09:06:51.474Z,21.33
2022-08-29T09:12:04.957Z,22.02
2022-08-29T09:17:13.729Z,16.20
2022-08-29T09:22:23.926Z,17.92
2022-08-29T09:27:29.409Z,16.13
2022-08-29T09:32:32.604Z,15.70
2022-08-29T09:37:35.521Z,16.17
2022-08-29T09:42:42.115Z,10.38
2022-08-29T09:47:45.584Z,24.85
2022-08-29T09:52:58.927Z,16.80
2022-08-29T09:58:08.750Z,16.90
2022-08-29T10:03:22.369Z,15.90
2022-08-29T10:08:36.338Z,26.15
2022-08-29T10:13:43.471Z,16.27
2022-08-29T10:19:02.949Z,22.63
2022-08-29T10:24:24.420Z,17.92
2022-08-29T10:29:40.321Z,19.08
2022-08-29T10:35:11.805Z,19.35
2022-08-29T10:40:25.607Z,18.90
2022-08-29T10:45:45.509Z,21.98
2022-08-29T10:50:57.299Z,21.90
2022-08-29T10:56:07.002Z,26.60
2022-08-29T11:01:33.348Z,23.10
2022-08-29T11:06:48.890Z,23.55
2022-08-29T11:12:18.083Z,20.33
2022-08-29T11:17:26.740Z,19.73
2022-08-29T11:22:41.294Z,13.43
2022-08-29T11:27:54.129Z,18.58
2022-08-29T11:33:12.652Z,14.27
2022-08-29T11:39:01.811Z,13.55
2022-08-29T11:44:30.672Z,19.60
2022-08-29T11:49:37.830Z,21.63
2022-08-29T11:54:43.509Z,12.45
2022-08-29T11:59:49.344Z,16.45
2022-08-29T12:05:00.944Z,14.50
2022-08-29T12:10:07.987Z,18.02
2022-08-29T12:15:50.351Z,15.75
2022-08-29T12:20:55.779Z,14.35
2022-08-29T12:26:21.941Z,21.77
2022-08-29T12:32:22.732Z,18.92
2022-08-29T12:37:41.380Z,19.10
2022-08-29T12:43:22.704Z,16.70
2022-08-29T12:48:53.415Z,20.67
2022-08-29T12:54:00.509Z,13.65
2022-08-29T12:59:05.106Z,19.10
2022-08-29T13:04:10.551Z,20.80
2022-08-29T13:09:17.688Z,20.30
2022-08-29T13:14:21.454Z,25.08
2022-08-29T13:19:25.013Z,19.92
2022-08-29T13:24:27.741Z,17.77
2022-08-29T13:29:42.749Z,22.10
2022-08-29T13:35:03.609Z,15.07
2022-08-29T13:40:41.982Z,20.05
2022-08-29T13:45:45.611Z,17.27
2022-08-29T13:50:48.343Z,18.27
2022-08-29T13:55:51.286Z,15.55
2022-08-29T14:00:55.002Z,16.70
2022-08-29T14:05:58.534Z,14.55
2022-08-29T14:11:01.349Z,16.48
2022-08-29T14:16:04.521Z,17.85
2022-08-29T14:21:07.441Z,10.63
2022-08-29T14:26:10.279Z,13.45
2022-08-29T14:31:13.053Z,10.85
2022-08-29T14:36:15.691Z,13.48
2022-08-29T14:41:19.482Z,10.43
2022-08-29T14:46:22.377Z,14.57
2022-08-29T14:51:25.605Z,17.75
2022-08-29T14:56:47.592Z,12.68
2022-08-29T15:01:54.519Z,16.05
2022-08-29T15:06:57.974Z,12.43
2022-08-29T15:12:00.756Z,13.43
2022-08-29T15:17:05.357Z,9.38
2022-08-29T15:22:08.325Z,10.90
2022-08-29T15:27:12.092Z,13.30
2022-08-29T15:32:15.094Z,11.57
2022-08-29T15:37:18.048Z,18.58
2022-08-29T15:42:24.289Z,12.05
2022-08-29T15:47:28.188Z,14.10
2022-08-29T15:52:31.260Z,11.57
2022-08-29T15:57:34.704Z,8.93
2022-08-29T16:02:54.884Z,11.10
2022-08-29T16:07:57.722Z,13.13
2022-08-29T16:13:00.754Z,14.13
2022-08-29T16:18:04.265Z,13.88
2022-08-29T16:23:07.408Z,10.40
2022-08-29T16:28:10.346Z,15.38
2022-08-29T16:33:13.295Z,15.20
2022-08-29T16:38:16.297Z,12.13
2022-08-29T16:43:19.393Z,13.13
2022-08-29T16:48:22.826Z,13.77
2022-08-29T16:53:26.056Z,8.10
2022-08-29T16:58:47.404Z,12.52
2022-08-29T17:03:50.134Z,12.98
2022-08-29T17:08:52.725Z,14.65
2022-08-29T17:13:56.160Z,12.52
2022-08-29T17:18:58.965Z,15.00
2022-08-29T17:24:02.486Z,13.60
2022-08-29T17:29:06.707Z,11.30
2022-08-29T17:34:09.814Z,9.75
2022-08-29T17:39:13.079Z,11.65
2022-08-29T17:44:15.902Z,11.88
2022-08-29T17:49:18.608Z,10.38
2022-08-29T17:54:23.298Z,10.40
2022-08-29T17:59:31.428Z,13.27
2022-08-29T18:04:34.071Z,16.27
2022-08-29T18:09:36.867Z,15.60
2022-08-29T18:14:39.739Z,13.68
2022-08-29T18:19:42.416Z,11.80
2022-08-29T18:24:47.476Z,14.15
2022-08-29T18:29:50.136Z,22.30
2022-08-29T18:34:57.561Z,15.18
2022-08-29T18:40:05.509Z,16.15
2022-08-29T18:45:09.846Z,13.10
2022-08-29T18:50:30.959Z,10.68
2022-08-29T18:55:34.289Z,11.82
2022-08-29T19:00:38.064Z,13.73
2022-08-29T19:05:47.863Z,14.80
2022-08-29T19:10:55.470Z,14.63
2022-08-29T19:15:59.896Z,14.57
2022-08-29T19:21:03.329Z,13.98
2022-08-29T19:26:09.359Z,18.70
2022-08-29T19:31:14.517Z,13.60
2022-08-29T19:36:19.060Z,18.60
2022-08-29T19:41:22.310Z,16.00
2022-08-29T19:46:25.100Z,16.15
2022-08-29T19:51:32.709Z,12.60
2022-08-29T19:56:35.690Z,15.15
2022-08-29T20:01:40.486Z,14.27
2022-08-29T20:06:44.002Z,14.43
2022-08-29T20:11:48.043Z,11.60
2022-08-29T20:16:50.699Z,21.50
2022-08-29T20:21:53.374Z,12.85
2022-08-29T20:26:56.497Z,16.38
2022-08-29T20:32:02.078Z,13.25
2022-08-29T20:37:11.069Z,15.38
2022-08-29T20:42:16.292Z,13.50
2022-08-29T20:47:20.252Z,16.05
2022-08-29T20:52:24.888Z,18.48
2022-08-29T20:57:27.803Z,15.75
2022-08-29T21:02:48.906Z,16.98
2022-08-29T21:07:51.608Z,13.60
2022-08-29T21:12:54.394Z,13.77
2022-08-29T21:17:57.366Z,15.93
2022-08-29T21:23:03.054Z,15.27
2022-08-29T21:28:07.159Z,17.85
2022-08-29T21:33:10.496Z,19.40
2022-08-29T21:38:13.474Z,14.02
2022-08-29T21:43:16.374Z,19.40
2022-08-29T21:48:19.249Z,20.23
2022-08-29T21:53:22.891Z,16.88
2022-08-29T21:58:25.661Z,24.67
2022-08-29T22:03:28.366Z,18.52
2022-08-29T22:08:32.333Z,14.80
2022-08-29T22:13:34.941Z,20.00
2022-08-29T22:18:37.622Z,15.45
2022-08-29T22:23:40.306Z,15.77
2022-08-29T22:28:45.282Z,14.18
2022-08-29T22:33:48.469Z,21.08
2022-08-29T22:38:56.613Z,16.83
2022-08-29T22:49:25.498Z,18.92
2022-08-29T22:54:35.865Z,17.95
2022-08-29T22:59:39.427Z,16.58
2022-08-29T23:04:42.294Z,16.98
2022-08-29T23:09:45.573Z,17.33
2022-08-29T23:14:48.387Z,18.95
2022-08-29T23:19:51.149Z,21.52
2022-08-29T23:24:58.543Z,20.25
2022-08-29T23:30:02.080Z,19.85
2022-08-29T23:35:07.401Z,15.38
2022-08-29T23:40:10.370Z,17.40
2022-08-29T23:45:13.342Z,16.05
2022-08-29T23:50:16.493Z,19.45
2022-08-29T23:55:19.222Z,18.42
